Historyczne dane pomiarowe

Dodano dane terminowe – wersja testowa.

Dane z okresu 1951-2019

Wersja bazy: 1.34 [2019-03-16, lista zmian], aktualizacja planowana na 2019-04-15

Dane meteo z obszaru Polski uzyskane na podstawie danych udostępnionych przez Instytut Meteorologii i Gospodarki Wodnej – Państwowy Instytut Badawczy.

 

Wybierz Datę:    

       

TemperaturaWilgotnośćWiatrCiśnienieOpadyŚniegCzas trwania zjawisk
 Stacja t tx tn tng RH VA  wxwx mslp ppp RRR   cm mm wxwxwxwxwxwxwx
1994-08-14 14.7 19.0 11.7- 68.5- 4.7 1.0---- 0.0------------
1994-08-13 16.7 22.0 11.9- 77.3- 6.3 1.7---- 2.3------------
1994-08-12 15.0 20.3 12.9- 91.0- 7.0 0.7---- 9.9------------
1994-08-11 18.1 25.9 14.1- 84.8- 6.0 1.3---- 1.8------------
1994-08-10 18.9 28.9 10.1- 73.3- 5.3 0.0---- 0.0------------
1994-08-09 18.0 22.3 14.1- 88.5- 8.0 0.7---- 2.3------------
1994-08-08 20.0 29.6 13.3- 79.5- 8.0 0.0---- 0.1------------
1994-08-07 20.6 29.8 14.3- 76.5- 7.3 0.3---- 0.0------------
1994-08-06 20.6 30.2 11.9- 70.8- 3.3 0.0---- 0.0------------
1994-08-05 21.0 28.7 12.1- 68.8- 4.3 0.3---- 0.0------------
1994-08-04 19.9 26.9 13.9- 79.8- 5.3 0.0---- 0.2------------
1994-08-03 20.0 27.9 12.1- 79.3- 6.7 0.3---- 3.3------------
1994-08-02 19.4 28.9 11.3- 81.5- 4.0 0.0---- 2.8------------
1994-08-01 20.6 31.2 13.7- 75.3- 3.3 0.3---- 1.1------------
1994-07-31 22.6 31.4 11.7- 58.0- 1.3 0.3---- 0.0------------
1994-07-30 22.1 31.4 11.9- 55.3- 1.3 0.0---- 0.0------------
1994-07-29 21.0 30.9 10.1- 57.8- 0.7 0.3---- 0.0------------
1994-07-28 21.3 30.0 11.3- 60.3- 2.3 0.3---- 0.0------------
1994-07-27 20.4 30.6 10.9- 62.3- 1.3 0.3---- 0.0------------
1994-07-26 21.2 30.0 11.3- 66.3- 2.3 0.0---- 0.0------------
1994-07-25 20.1 29.0 10.9- 65.8- 4.7 0.0---- 0.0------------
1994-07-24 20.8 28.3 11.1- 57.8- 2.7 0.3---- 0.0------------
1994-07-23 17.8 26.7 7.1- 62.5- 2.3 0.3---- 0.0------------
1994-07-22 17.1 25.3 7.1- 63.8- 1.7 0.3---- 0.0------------
1994-07-21 16.0 24.4 6.9- 66.5- 3.0 0.3---- 0.0------------
1994-07-20 17.4 22.8 10.9- 71.0- 3.3 0.3---- 0.0------------
1994-07-19 18.9 24.1 13.9- 76.5- 5.7 0.7---- 0.0------------
1994-07-18 19.2 25.1 15.3- 83.3- 5.0 0.3---- 0.0------------
1994-07-17 18.9 27.7 11.9- 80.5- 7.3 0.0---- 2.9------------
1994-07-16 18.5 28.3 11.7- 79.5- 6.3 0.0---- 0.0------------
1994-07-15 17.5 25.9 10.9- 82.0- 6.0 1.3---- 1.2------------
1994-07-14 17.1 26.3 10.9- 79.0- 6.0 0.7---- 28.3------------
1994-07-13 18.9 25.1 10.9- 72.5- 4.7 1.0---- 0.0------------
1994-07-12 18.4 23.8 12.7- 75.8- 5.7 0.7---- 0.0------------
1994-07-11 16.3 21.0 10.9- 83.0- 7.0 1.0---- 0.2------------
1994-07-10 12.8 17.0 9.7- 92.3- 8.0 0.0---- 4.8------------
1994-07-09 12.5 19.4 7.9- 78.0- 7.3 1.0---- 13.0------------
1994-07-08 15.8 20.1 12.9- 74.3- 5.3 2.3---- 0.0------------
1994-07-07 15.5 24.9 8.1- 79.0- 7.3 0.0---- 6.3------------
1994-07-06 18.8 24.1 11.7- 65.5- 3.3 1.0---- 0.0------------
1994-07-05 16.3 24.8 9.7- 78.3- 6.7 0.0---- 0.5------------
1994-07-04 18.7 27.0 7.3- 63.8- 1.0 0.3---- 0.0------------
1994-07-03 16.9 26.7 6.7- 62.8- 1.0 0.3---- 0.0------------
1994-07-02 15.7 23.8 6.9- 67.0- 0.0 0.7---- 0.0------------
1994-07-01 18.5 23.0 15.7- 67.8- 4.3 0.3---- 0.0------------
1994-06-30 19.8 27.3 14.7- 82.3- 5.7 0.3---- 1.6------------
1994-06-29 21.2 30.0 12.9- 74.8- 3.0 0.3---- 0.0------------
1994-06-28 21.8 29.0 14.6- 76.3- 3.0 0.3---- 0.0------------
1994-06-27 21.1 30.8 11.9- 76.3- 4.0 0.3---- 0.0------------
1994-06-26 18.4 27.9 5.9- 62.5- 0.3 0.0---- 0.0------------
1994-06-25 13.5 23.0 2.0- 53.8- 0.0 0.3---- 0.0------------
1994-06-24 13.3 20.1 4.0- 57.0- 0.7 1.7---- 0.0------------
1994-06-23 16.6 22.1 14.4- 66.3- 5.0 3.0---- 0.0------------
1994-06-22 16.0 25.1 4.7- 72.0- 4.0 2.0---- 0.0------------
1994-06-21 15.6 21.1 7.6- 64.3- 2.0 0.3---- 0.0------------
1994-06-20 15.8 21.2 7.9- 69.0- 4.7 1.7---- 0.0------------
1994-06-19 16.0 24.0 8.9- 70.3- 5.7 2.7---- 0.0------------
1994-06-18 10.5 19.0 3.0- 79.5- 7.0 0.7---- 10.4------------
1994-06-17 9.6 13.1 8.3- 84.0- 8.0 2.7---- 1.1------------
1994-06-16 11.0 17.0 4.0- 78.0- 6.3 0.7---- 1.3------------
311.2 ms

 

Źródłem pochodzenia danych jest Instytut Meteorologii i Gospodarki Wodnej – Państwowy Instytut Badawczy. Dane Instytutu Meteorologii i Gospodarki Wodnej – Państwowego Instytutu Badawczego zostały przetworzone.

Dane źródłowe można odnaleźć na stronie https://dane.imgw.pl